Nearby METAR Reports

 

LFRV - Vannes-Meucon, FRANCE
Distance from station: NE 28km
Mise à jour: 20/07/2018 18:00
clair
clair
 Wind from ONO
Vent: ONO 17 km/h
Température: 23°C
Point de rosée: 12°C
Humidité: 50%
Baromètre: 1015 hPa
Résumé: clair
Visibility: greater than 10 km
2018/07/20 16:00 LFRV 201600Z AUTO 29009KT CAVOK 23/12 Q1015
LFRZ - Saint - Nazaire / Montoir, FRANCE
Distance from station: SE 64km
Mise à jour: 20/07/2018 18:00
clair
clair
 Wind from O
Vent: O 24 km/h
Température: 23°C
Point de rosée: 13°C
Humidité: 53%
Baromètre: 1015 hPa
Résumé: clair
Visibility: greater than 10 km
2018/07/20 16:00 LFRZ 201600Z AUTO 28013KT CAVOK 23/13 Q1015 NOSIG
 
LFRH - Lorient / Lann- Bihoué, FRANCE
Distance from station: NO 81km
Mise à jour: 20/07/2018 18:00
Peu nuageux
Peu nuageux
 Wind from ONO
Vent: ONO 20 km/h
Température: 22°C
Point de rosée: 11°C
Humidité: 50%
Baromètre: 1016 hPa
Clouds: Peu nuageux
Visibility: 10 km
Cloud details: Peu nuageux 1311 m
2018/07/20 16:00 LFRH 201600Z AUTO 29011KT 240V340 9999 FEW043 22/11 Q1016 NOSIG
LFRB - Brest - Guipavas, FRANCE
Distance from station: NO 200km
Mise à jour: 20/07/2018 18:00
Peu nuageux
Peu nuageux
 Wind from ONO
Vent: ONO 17 km/h, Rafale: 35 km/h
Température: 20°C
Point de rosée: 9°C
Humidité: 49%
Baromètre: 1017 hPa
Clouds: Peu nuageux
Visibility: 10 km
Cloud details: Peu nuageux 1219 m
2018/07/20 16:00 LFRB 201600Z AUTO 30009G19KT 260V350 9999 FEW040 20/09 Q1017 NOSIG
 
LFPV - Villacoublay - Vélizy/, FRANCE
Distance from station: NE 450km
Mise à jour: 20/07/2018 18:00
pluie légère, Orage
pluie légère, Orage
 Wind from ONO
Vent: ONO 19 km/h
Température: 20°C
Point de rosée: 18°C
Humidité: 88%
Baromètre: 1013 hPa
Résumé: pluie légère
Clouds: Orage
Visibility: 9 km
Cloud details: Peu nuageux 610 m
partiellement nuageux 1463 m
nuageux 2012 m
2018/07/20 16:00 LFPV 201600Z AUTO 30010KT 9000 -RA FEW020/// SCT048/// BKN066/// ///TCU 20/18 Q1013 TEMPO 24015G30KT 4500 SHRA SCT050CB
LFRS - Nantes Atlantique, FRANCE
Distance from station: SE 106km
Mise à jour: 20/07/2018 18:00
Peu nuageux
Peu nuageux
 Wind from O
Vent: O 19 km/h
Température: 24°C
Point de rosée: 15°C
Humidité: 57%
Baromètre: 1015 hPa
Clouds: Peu nuageux
Visibility: 10 km
Cloud details: Peu nuageux 1250 m
2018/07/20 16:00 LFRS 201600Z AUTO 27010KT 9999 FEW041 24/15 Q1015 NOSIG